Time;durP1;ratioP1;P1;durP2;ratioP2;P2;SDS_P1;SDS_P2;PMS_P1;PMS_P2;Temp;Humidity;BMP_temperature;BMP_pressure;BME280_temperature;BME280_humidity;BME280_pressure;Samples;Min_cycle;Max_cycle;Signal;HPM_P1;HPM_P2
2023/06/10 00:02:07;;;;;;;11.82;10.57;;;24.50;99.30;;;;;;5023590;28;20088;-72
2023/06/10 00:04:33;;;;;;;11.90;9.85;;;24.40;99.10;;;;;;5026025;28;20034;-73
2023/06/10 00:06:59;;;;;;;12.90;10.80;;;24.40;99.00;;;;;;5028044;28;20061;-71
2023/06/10 00:09:25;;;;;;;11.30;10.25;;;24.40;99.90;;;;;;5026792;28;20044;-72
2023/06/10 00:11:51;;;;;;;12.52;11.23;;;24.30;98.90;;;;;;5023275;28;20021;-72
2023/06/10 00:14:17;;;;;;;14.75;11.27;;;24.30;99.50;;;;;;5013638;28;20034;-72
2023/06/10 00:16:44;;;;;;;13.45;10.90;;;24.30;99.80;;;;;;5025499;28;20034;-72
2023/06/10 00:19:13;;;;;;;12.05;10.82;;;24.20;99.90;;;;;;5023389;28;20045;-72
2023/06/10 00:21:41;;;;;;;14.35;10.43;;;24.20;99.90;;;;;;5005247;28;20045;-72
2023/06/10 00:24:11;;;;;;;12.73;11.63;;;24.10;99.90;;;;;;5000599;28;20025;-71
2023/06/10 00:26:40;;;;;;;12.18;10.27;;;24.10;99.90;;;;;;5021762;28;20541;-72
2023/06/10 00:29:07;;;;;;;11.25;10.07;;;24.10;99.90;;;;;;5027236;28;20100;-72
2023/06/10 00:31:35;;;;;;;14.00;10.98;;;24.00;99.90;;;;;;5024394;28;20018;-72
2023/06/10 00:34:02;;;;;;;11.25;10.13;;;24.00;99.90;;;;;;5022876;28;20045;-72
2023/06/10 00:36:28;;;;;;;12.48;10.32;;;23.90;99.90;;;;;;5012516;28;20036;-72
2023/06/10 00:38:53;;;;;;;13.32;11.68;;;23.90;99.90;;;;;;5029643;28;20029;-72
2023/06/10 00:41:19;;;;;;;15.38;11.25;;;23.90;99.90;;;;;;5023214;28;20033;-72
2023/06/10 00:43:45;;;;;;;14.55;11.05;;;23.90;99.90;;;;;;5026927;28;20017;-72
2023/06/10 00:46:12;;;;;;;12.43;11.10;;;23.90;99.90;;;;;;5022263;28;20543;-72
2023/06/10 00:48:39;;;;;;;12.60;10.98;;;23.90;99.90;;;;;;5028494;28;20025;-72
2023/06/10 00:51:05;;;;;;;12.98;10.18;;;23.90;99.90;;;;;;5021813;28;20037;-73
2023/06/10 00:53:32;;;;;;;14.40;10.95;;;23.90;99.90;;;;;;5024060;28;20097;-72
2023/06/10 00:55:58;;;;;;;13.55;10.43;;;23.90;99.90;;;;;;5026804;28;20021;-72
2023/06/10 00:58:25;;;;;;;12.50;11.40;;;23.90;99.90;;;;;;5025830;28;20014;-72
2023/06/10 01:00:51;;;;;;;11.50;10.40;;;23.90;99.90;;;;;;5026957;28;20048;-72
2023/06/10 01:03:18;;;;;;;13.70;11.13;;;23.90;99.90;;;;;;5028090;28;20053;-72
2023/06/10 01:05:51;;;;;;;15.57;10.68;;;23.80;99.90;;;;;;5027624;28;20038;-72
2023/06/10 01:08:57;;;;;;;13.70;12.10;;;23.80;99.90;;;;;;5024706;28;20516;-72
2023/06/10 01:11:28;;;;;;;18.25;10.85;;;23.70;99.90;;;;;;4986600;28;20433;-72
2023/06/10 01:13:56;;;;;;;13.82;12.45;;;23.70;99.90;;;;;;5020459;28;20028;-72
2023/06/10 01:16:23;;;;;;;14.05;11.85;;;23.70;99.90;;;;;;5020497;28;20030;-72
2023/06/10 01:18:48;;;;;;;13.65;11.25;;;23.70;99.90;;;;;;5026581;28;20698;-72
2023/06/10 01:21:21;;;;;;;13.27;11.95;;;23.70;99.90;;;;;;5019880;28;20041;-73
2023/06/10 01:23:47;;;;;;;14.88;13.45;;;23.60;99.90;;;;;;5028939;28;20029;-72
2023/06/10 01:26:14;;;;;;;15.35;12.80;;;23.60;99.90;;;;;;5022751;28;20120;-72
2023/06/10 01:28:46;;;;;;;12.55;10.90;;;23.60;99.90;;;;;;5028879;28;20013;-72
2023/06/10 01:31:33;;;;;;;13.38;12.13;;;23.50;99.90;;;;;;5027853;28;20109;-72
2023/06/10 01:34:02;;;;;;;14.80;13.50;;;23.50;99.90;;;;;;5030455;28;20428;-72
2023/06/10 01:36:28;;;;;;;14.55;12.95;;;23.40;99.90;;;;;;5028262;28;20393;-72
2023/06/10 01:38:55;;;;;;;16.13;12.25;;;23.40;99.90;;;;;;5031156;28;20461;-72
2023/06/10 01:41:21;;;;;;;14.38;12.10;;;23.40;99.90;;;;;;5027677;28;20038;-72
2023/06/10 01:43:48;;;;;;;15.57;13.15;;;23.30;99.90;;;;;;5031899;28;20026;-72
2023/06/10 01:46:19;;;;;;;12.95;11.75;;;23.30;99.90;;;;;;5028436;28;20030;-72
2023/06/10 01:48:45;;;;;;;15.73;13.43;;;23.20;99.90;;;;;;5027215;28;20037;-72
2023/06/10 01:51:10;;;;;;;15.82;14.32;;;23.20;99.90;;;;;;5032171;28;20406;-72
2023/06/10 01:53:36;;;;;;;15.48;14.05;;;23.20;99.90;;;;;;5027198;28;20026;-72
2023/06/10 01:56:01;;;;;;;15.07;13.65;;;23.20;99.90;;;;;;5030852;28;20465;-72
2023/06/10 01:58:27;;;;;;;16.20;12.60;;;23.10;99.90;;;;;;5031190;28;20410;-72
2023/06/10 02:00:53;;;;;;;14.90;13.43;;;23.00;99.90;;;;;;5029414;28;20021;-72
2023/06/10 02:03:18;;;;;;;19.83;14.00;;;23.00;99.90;;;;;;5023491;28;20394;-72
2023/06/10 02:05:45;;;;;;;15.95;13.98;;;23.00;99.90;;;;;;5010667;28;20111;-72
2023/06/10 02:08:10;;;;;;;15.70;13.70;;;22.90;99.90;;;;;;5031324;28;20168;-72
2023/06/10 02:10:36;;;;;;;16.08;14.32;;;22.90;99.90;;;;;;5025450;28;20109;-72
2023/06/10 02:13:02;;;;;;;17.63;14.15;;;22.90;99.90;;;;;;5022817;28;20033;-72
2023/06/10 02:15:28;;;;;;;15.20;13.60;;;22.80;99.90;;;;;;5031572;28;20022;-72
2023/06/10 02:17:54;;;;;;;15.60;14.00;;;22.80;99.90;;;;;;5027666;28;20036;-72
2023/06/10 02:20:20;;;;;;;15.70;13.35;;;22.70;99.90;;;;;;5020448;28;20018;-72
2023/06/10 02:22:46;;;;;;;16.67;15.00;;;22.70;99.90;;;;;;5032173;28;20512;-72
2023/06/10 02:25:12;;;;;;;14.68;13.23;;;22.70;99.90;;;;;;5030124;28;20021;-72
2023/06/10 02:27:38;;;;;;;16.13;13.73;;;22.60;99.90;;;;;;5031733;28;20112;-72
2023/06/10 02:30:04;;;;;;;15.20;13.48;;;22.60;99.90;;;;;;5031622;28;20037;-72
2023/06/10 02:32:29;;;;;;;15.00;13.35;;;22.60;99.90;;;;;;5025459;28;20061;-72
2023/06/10 02:34:55;;;;;;;15.82;14.07;;;22.50;99.90;;;;;;5030586;28;20068;-72
2023/06/10 02:37:21;;;;;;;16.40;13.98;;;22.50;99.90;;;;;;5026027;28;20399;-72
2023/06/10 02:39:46;;;;;;;14.77;13.18;;;22.50;99.90;;;;;;5027554;28;20025;-72
2023/06/10 02:42:12;;;;;;;15.88;14.27;;;22.40;99.90;;;;;;5025208;28;20116;-72
2023/06/10 02:44:39;;;;;;;15.57;14.07;;;22.40;99.90;;;;;;5031103;28;20021;-72
2023/06/10 02:47:05;;;;;;;15.48;14.07;;;22.40;99.90;;;;;;5024005;28;20025;-72
2023/06/10 02:49:30;;;;;;;15.30;13.38;;;22.30;99.90;;;;;;5026922;28;20029;-72
2023/06/10 02:51:56;;;;;;;15.15;13.70;;;22.30;99.90;;;;;;5025108;28;20482;-72
2023/06/10 02:54:26;;;;;;;14.80;13.30;;;22.30;99.90;;;;;;5015056;28;20017;-72
2023/06/10 02:56:52;;;;;;;18.58;14.35;;;22.30;99.90;;;;;;5030194;28;20029;-72
2023/06/10 02:59:18;;;;;;;15.73;14.25;;;22.20;99.90;;;;;;5008858;28;20067;-72
2023/06/10 03:01:43;;;;;;;15.68;14.05;;;22.20;99.90;;;;;;5026908;28;20038;-72
2023/06/10 03:04:09;;;;;;;15.38;13.77;;;22.10;99.90;;;;;;5025600;28;20478;-72
2023/06/10 03:06:35;;;;;;;14.52;13.02;;;22.10;99.90;;;;;;5032705;28;20036;-72
2023/06/10 03:09:04;;;;;;;16.73;14.35;;;22.10;99.90;;;;;;5026278;28;20022;-72
2023/06/10 03:11:30;;;;;;;17.08;12.90;;;22.00;99.90;;;;;;5025436;28;20018;-72
2023/06/10 03:13:56;;;;;;;15.13;13.63;;;22.00;99.90;;;;;;5029908;28;20034;-72
2023/06/10 03:16:22;;;;;;;16.15;13.65;;;22.00;99.90;;;;;;5024914;28;20030;-72
2023/06/10 03:18:49;;;;;;;14.80;12.60;;;22.00;99.90;;;;;;5012612;28;20140;-72
2023/06/10 03:21:15;;;;;;;19.25;13.82;;;22.00;99.90;;;;;;5026066;28;20046;-72
2023/06/10 03:23:40;;;;;;;15.65;13.90;;;22.00;99.90;;;;;;5029281;28;20022;-72
2023/06/10 03:26:06;;;;;;;15.80;13.15;;;21.90;99.90;;;;;;5031859;28;20747;-72
2023/06/10 03:28:32;;;;;;;16.05;14.45;;;21.90;99.90;;;;;;5024151;28;20018;-72
2023/06/10 03:30:57;;;;;;;18.45;14.13;;;21.90;99.90;;;;;;5023485;28;20112;-72
2023/06/10 03:33:23;;;;;;;20.88;14.52;;;21.80;99.90;;;;;;5020860;28;20037;-73
2023/06/10 03:35:49;;;;;;;15.50;14.00;;;21.70;99.90;;;;;;5033743;28;20520;-73
2023/06/10 03:38:14;;;;;;;15.55;14.02;;;21.80;99.90;;;;;;5026705;28;20162;-73
2023/06/10 03:40:40;;;;;;;16.67;14.95;;;21.70;99.90;;;;;;5026138;28;20129;-72
2023/06/10 03:43:06;;;;;;;17.40;14.55;;;21.60;99.90;;;;;;5025640;28;20224;-73
2023/06/10 03:45:32;;;;;;;16.67;15.02;;;21.50;99.90;;;;;;5025544;28;20026;-73
2023/06/10 03:47:58;;;;;;;20.15;16.08;;;21.60;99.90;;;;;;5026460;28;20022;-72
2023/06/10 03:50:24;;;;;;;17.13;15.38;;;21.60;99.90;;;;;;5025991;28;20458;-72
2023/06/10 03:52:50;;;;;;;18.35;15.38;;;21.60;99.90;;;;;;5029349;28;20082;-73
2023/06/10 03:55:16;;;;;;;17.45;15.68;;;21.60;99.90;;;;;;5028154;28;20017;-73
2023/06/10 03:57:42;;;;;;;15.98;14.35;;;21.60;99.90;;;;;;5010107;28;20022;-72
2023/06/10 04:00:12;;;;;;;17.25;15.52;;;21.60;99.90;;;;;;5027763;28;20060;-72
2023/06/10 04:02:45;;;;;;;17.88;15.77;;;21.50;99.90;;;;;;5028657;28;20377;-72
2023/06/10 04:05:20;;;;;;;16.90;15.07;;;21.50;99.90;;;;;;5027621;28;20034;-72
2023/06/10 04:07:48;;;;;;;16.98;15.18;;;21.50;99.90;;;;;;5011798;28;20025;-72
2023/06/10 04:10:14;;;;;;;16.92;14.85;;;21.50;99.90;;;;;;5011464;28;20488;-72
2023/06/10 04:12:40;;;;;;;18.13;16.33;;;21.50;99.90;;;;;;5022357;28;20030;-70
2023/06/10 04:15:06;;;;;;;17.95;16.15;;;21.50;99.90;;;;;;5026784;28;20501;-71
2023/06/10 04:17:32;;;;;;;15.65;14.05;;;21.50;99.90;;;;;;5026608;28;20072;-71
2023/06/10 04:19:58;;;;;;;16.55;14.00;;;21.50;99.90;;;;;;5012496;28;20480;-73
2023/06/10 04:22:24;;;;;;;16.98;15.38;;;21.40;99.90;;;;;;5025677;28;20033;-72
2023/06/10 04:24:49;;;;;;;15.13;13.68;;;21.40;99.90;;;;;;5024433;28;20028;-72
2023/06/10 04:27:15;;;;;;;16.15;14.65;;;21.40;99.90;;;;;;5029686;28;20021;-72
2023/06/10 04:29:41;;;;;;;26.67;14.68;;;21.40;99.90;;;;;;5024970;28;20482;-71
2023/06/10 04:32:07;;;;;;;18.58;15.23;;;21.30;99.90;;;;;;5018522;28;20022;-72
2023/06/10 04:34:34;;;;;;;17.02;15.13;;;21.30;99.90;;;;;;5028835;28;20478;-71
2023/06/10 04:37:00;;;;;;;16.95;15.25;;;21.30;99.90;;;;;;5024326;28;20014;-71
2023/06/10 04:39:26;;;;;;;17.75;15.20;;;21.30;99.90;;;;;;5023718;28;20029;-71
2023/06/10 04:41:51;;;;;;;17.02;15.23;;;21.30;99.90;;;;;;5024313;28;20041;-72
2023/06/10 04:44:18;;;;;;;19.45;17.38;;;21.30;99.90;;;;;;5013419;28;20513;-72
2023/06/10 04:46:44;;;;;;;16.92;15.13;;;21.30;99.90;;;;;;5018757;28;20108;-71
2023/06/10 04:49:10;;;;;;;16.45;14.95;;;21.30;99.90;;;;;;5027056;28;20797;-71
2023/06/10 04:51:35;;;;;;;19.00;17.00;;;21.40;99.90;;;;;;5029558;28;20037;-71
2023/06/10 04:54:04;;;;;;;16.55;14.82;;;21.30;99.90;;;;;;5020641;28;20377;-69
2023/06/10 04:56:30;;;;;;;17.30;15.55;;;21.30;99.90;;;;;;5022615;28;20064;-69
2023/06/10 04:58:57;;;;;;;16.48;14.82;;;21.40;99.90;;;;;;5016624;28;20037;-71
2023/06/10 05:01:23;;;;;;;18.70;16.88;;;21.40;99.90;;;;;;5025045;28;20478;-72
2023/06/10 05:03:49;;;;;;;18.63;14.60;;;21.40;99.90;;;;;;5008211;28;20492;-72
2023/06/10 05:06:15;;;;;;;16.80;14.15;;;21.40;99.90;;;;;;5021127;28;20026;-72
2023/06/10 05:08:40;;;;;;;16.05;14.38;;;21.40;99.90;;;;;;5028313;28;20489;-72
2023/06/10 05:11:06;;;;;;;19.00;15.50;;;21.40;99.90;;;;;;5031116;28;20017;-72
2023/06/10 05:13:32;;;;;;;17.38;15.57;;;21.50;99.90;;;;;;5015107;28;20018;-72
2023/06/10 05:15:58;;;;;;;16.27;13.55;;;21.40;99.90;;;;;;5014430;28;20056;-72
2023/06/10 05:18:24;;;;;;;17.98;16.08;;;21.50;99.90;;;;;;5022018;28;20092;-72
2023/06/10 05:20:50;;;;;;;21.95;16.30;;;21.50;99.90;;;;;;5017796;28;20045;-72
2023/06/10 05:23:15;;;;;;;24.98;16.05;;;21.50;99.90;;;;;;5022691;28;20029;-72
2023/06/10 05:25:42;;;;;;;19.38;14.98;;;21.50;99.90;;;;;;5019560;28;20022;-73
2023/06/10 05:28:09;;;;;;;18.40;15.77;;;21.50;99.90;;;;;;5030464;28;20036;-73
2023/06/10 05:30:38;;;;;;;16.88;15.18;;;21.60;99.90;;;;;;5012957;28;20029;-72
2023/06/10 05:33:04;;;;;;;16.98;15.13;;;21.60;99.90;;;;;;5026155;28;20575;-72
2023/06/10 05:35:30;;;;;;;20.42;18.02;;;21.60;99.90;;;;;;5024153;28;20526;-72
2023/06/10 05:37:56;;;;;;;20.42;16.77;;;21.50;99.90;;;;;;5024016;28;20477;-72
2023/06/10 05:40:22;;;;;;;17.08;15.48;;;21.40;99.90;;;;;;5003245;28;20068;-72
2023/06/10 05:42:48;;;;;;;19.35;17.25;;;21.50;99.90;;;;;;5030802;28;20496;-72
2023/06/10 05:45:13;;;;;;;17.58;15.73;;;21.40;99.90;;;;;;5025263;28;20059;-72
2023/06/10 05:47:40;;;;;;;23.05;16.58;;;21.50;99.90;;;;;;5027251;28;20393;-72
2023/06/10 05:50:07;;;;;;;16.83;15.07;;;21.50;99.90;;;;;;5014287;28;20021;-72
2023/06/10 05:52:36;;;;;;;17.60;15.82;;;21.50;99.90;;;;;;5023342;28;20018;-71
2023/06/10 05:55:04;;;;;;;19.40;16.55;;;21.40;99.90;;;;;;5007638;28;20017;-72
2023/06/10 05:57:30;;;;;;;18.42;16.23;;;21.60;99.90;;;;;;5021554;28;20017;-72
2023/06/10 05:59:56;;;;;;;24.13;18.67;;;21.60;99.90;;;;;;5021465;28;20105;-72
2023/06/10 06:02:22;;;;;;;19.35;17.38;;;21.70;99.90;;;;;;5011778;28;20045;-72
2023/06/10 06:04:47;;;;;;;18.13;16.30;;;21.70;99.90;;;;;;5022921;28;20026;-71
2023/06/10 06:07:13;;;;;;;20.25;18.17;;;21.70;99.90;;;;;;5019904;28;20060;-72
2023/06/10 06:09:39;;;;;;;17.35;15.45;;;21.70;99.90;;;;;;5031587;28;20569;-72
2023/06/10 06:12:07;;;;;;;17.65;15.70;;;21.80;99.90;;;;;;5005226;28;20025;-72
2023/06/10 06:14:36;;;;;;;16.95;12.82;;;21.80;99.90;;;;;;5023845;28;20355;-72
2023/06/10 06:17:02;;;;;;;22.17;15.35;;;21.90;99.90;;;;;;5026345;28;20124;-72
2023/06/10 06:19:28;;;;;;;17.58;15.88;;;21.90;99.90;;;;;;5028235;28;20085;-72
2023/06/10 06:21:54;;;;;;;16.58;14.80;;;22.10;99.90;;;;;;5030989;28;20071;-72
2023/06/10 06:24:20;;;;;;;16.40;14.60;;;22.10;99.90;;;;;;5027472;28;20057;-72
2023/06/10 06:26:45;;;;;;;17.75;14.93;;;22.10;99.90;;;;;;5030702;28;20026;-72
2023/06/10 06:29:11;;;;;;;15.98;14.38;;;22.20;99.90;;;;;;5022806;28;20477;-72
2023/06/10 06:31:37;;;;;;;17.08;15.25;;;22.30;99.90;;;;;;5032999;28;20029;-72
2023/06/10 06:34:02;;;;;;;21.33;16.40;;;22.30;99.90;;;;;;5024143;28;20038;-72
2023/06/10 06:36:28;;;;;;;22.55;17.15;;;22.40;99.90;;;;;;5026251;28;20037;-72
2023/06/10 06:38:54;;;;;;;18.77;15.98;;;22.40;99.90;;;;;;5028201;28;20488;-72
2023/06/10 06:41:21;;;;;;;16.60;13.80;;;22.50;99.90;;;;;;5021025;28;20034;-72
2023/06/10 06:43:47;;;;;;;18.25;15.93;;;22.60;99.90;;;;;;5031840;28;20106;-72
2023/06/10 06:46:13;;;;;;;16.33;14.57;;;22.60;99.90;;;;;;5014324;28;20042;-72
2023/06/10 06:48:38;;;;;;;15.75;13.93;;;22.70;99.90;;;;;;5025774;28;20026;-72
2023/06/10 06:51:04;;;;;;;15.95;13.82;;;22.70;99.90;;;;;;5029992;28;20037;-72
2023/06/10 06:53:30;;;;;;;20.48;13.82;;;22.70;99.90;;;;;;5027833;28;20044;-72
2023/06/10 06:55:55;;;;;;;14.45;13.02;;;22.90;99.90;;;;;;5015883;28;20112;-72
2023/06/10 06:58:21;;;;;;;16.10;14.02;;;23.00;99.90;;;;;;5033901;28;20021;-72
2023/06/10 07:00:47;;;;;;;19.70;13.25;;;23.20;99.90;;;;;;5028011;28;20030;-70
2023/06/10 07:03:12;;;;;;;16.48;14.15;;;23.30;99.90;;;;;;5025530;28;20092;-70
2023/06/10 07:05:38;;;;;;;21.05;15.68;;;23.40;99.90;;;;;;5021838;28;20029;-70
2023/06/10 07:08:04;;;;;;;18.77;16.85;;;23.50;99.90;;;;;;5021227;28;20366;-70
2023/06/10 07:10:30;;;;;;;16.88;15.00;;;23.60;99.90;;;;;;5020219;28;20085;-70
2023/06/10 07:12:55;;;;;;;16.33;14.10;;;23.70;99.90;;;;;;5027684;28;20041;-70
2023/06/10 07:15:21;;;;;;;22.40;14.77;;;24.00;99.90;;;;;;5022413;28;20501;-70
2023/06/10 07:17:47;;;;;;;16.38;14.75;;;24.20;99.90;;;;;;5023342;28;20474;-70
2023/06/10 07:20:14;;;;;;;16.38;13.27;;;24.30;99.90;;;;;;5025520;28;20064;-70
2023/06/10 07:22:41;;;;;;;15.50;13.52;;;24.40;99.90;;;;;;5021985;28;20065;-70
2023/06/10 07:25:07;;;;;;;20.05;14.98;;;24.50;99.90;;;;;;5021723;28;20493;-70
2023/06/10 07:27:32;;;;;;;17.27;14.00;;;24.70;99.90;;;;;;5027052;28;20492;-70
2023/06/10 07:29:58;;;;;;;15.70;13.60;;;24.80;99.90;;;;;;5015045;28;20022;-70
2023/06/10 07:32:24;;;;;;;14.60;13.05;;;24.70;99.90;;;;;;5020067;28;20539;-71
2023/06/10 07:34:50;;;;;;;15.82;13.98;;;24.80;99.90;;;;;;5011035;28;20052;-71
2023/06/10 07:37:16;;;;;;;17.92;14.02;;;24.90;99.90;;;;;;5016760;28;20056;-71
2023/06/10 07:39:43;;;;;;;15.40;13.95;;;24.90;99.90;;;;;;5026761;28;20049;-71
2023/06/10 07:42:09;;;;;;;16.75;14.43;;;25.10;99.90;;;;;;5025170;28;20154;-71
2023/06/10 07:44:34;;;;;;;18.15;13.10;;;25.20;99.90;;;;;;5018098;28;20074;-71
2023/06/10 07:47:00;;;;;;;15.73;13.23;;;25.30;99.90;;;;;;5009165;28;20033;-71
2023/06/10 07:49:26;;;;;;;16.42;13.55;;;25.40;99.90;;;;;;5024977;28;20026;-71
2023/06/10 07:51:53;;;;;;;17.33;14.52;;;25.40;99.90;;;;;;5022206;28;20476;-72
2023/06/10 07:54:19;;;;;;;16.40;13.13;;;25.40;99.90;;;;;;5019701;28;20125;-71
2023/06/10 07:56:45;;;;;;;13.02;11.73;;;25.50;99.90;;;;;;5031142;28;20104;-71
2023/06/10 07:59:10;;;;;;;14.63;11.88;;;25.70;99.90;;;;;;5010794;28;20033;-71
2023/06/10 08:01:38;;;;;;;15.27;12.55;;;25.90;99.90;;;;;;5028208;28;20037;-71
2023/06/10 08:04:04;;;;;;;13.23;11.13;;;26.00;99.90;;;;;;5028033;28;20022;-71
2023/06/10 08:06:29;;;;;;;18.20;12.77;;;26.00;99.90;;;;;;5027774;28;20033;-71
2023/06/10 08:08:55;;;;;;;13.02;11.65;;;26.10;99.90;;;;;;5027329;28;20565;-71
2023/06/10 08:11:21;;;;;;;11.98;10.88;;;26.30;99.90;;;;;;5025753;28;20033;-72
2023/06/10 08:13:47;;;;;;;14.10;12.32;;;26.30;99.90;;;;;;5021428;28;20031;-71
2023/06/10 08:16:12;;;;;;;14.32;12.23;;;26.40;99.90;;;;;;5018315;28;20030;-71
2023/06/10 08:18:38;;;;;;;11.98;10.88;;;26.40;99.90;;;;;;5029538;28;20413;-71
2023/06/10 08:21:03;;;;;;;13.90;12.50;;;26.50;99.90;;;;;;5025260;28;20037;-71
2023/06/10 08:23:30;;;;;;;12.68;10.88;;;26.60;99.90;;;;;;5024186;28;20053;-71
2023/06/10 08:25:56;;;;;;;16.30;12.40;;;26.70;99.90;;;;;;5027793;28;20111;-71
2023/06/10 08:28:22;;;;;;;13.25;11.82;;;26.70;99.90;;;;;;5016783;28;20054;-71
2023/06/10 08:30:47;;;;;;;15.25;10.93;;;26.80;99.90;;;;;;5022046;28;20014;-71
2023/06/10 08:33:13;;;;;;;17.33;12.38;;;27.00;99.90;;;;;;5028570;28;20474;-71
2023/06/10 08:35:38;;;;;;;15.00;11.32;;;27.00;99.90;;;;;;5013338;28;20026;-71
2023/06/10 08:38:04;;;;;;;16.83;11.77;;;27.20;99.90;;;;;;5015279;28;20455;-71
2023/06/10 08:40:30;;;;;;;15.85;11.10;;;27.40;99.90;;;;;;5029163;28;20517;-71
2023/06/10 08:43:21;;;;;;;18.80;10.65;;;27.50;99.90;;;;;;5023935;28;20052;-71
2023/06/10 08:45:49;;;;;;;14.30;10.25;;;27.70;99.90;;;;;;5020545;28;20390;-71
2023/06/10 08:48:16;;;;;;;14.23;10.32;;;27.80;99.90;;;;;;5029618;28;20083;-71
2023/06/10 08:50:43;;;;;;;16.15;10.65;;;28.00;99.90;;;;;;5027087;28;20030;-71
2023/06/10 08:53:13;;;;;;;13.43;10.57;;;28.00;99.90;;;;;;5019318;28;20025;-71
2023/06/10 08:55:42;;;;;;;11.63;10.30;;;28.10;99.90;;;;;;5028516;28;20429;-71
2023/06/10 08:58:08;;;;;;;15.02;10.63;;;28.30;99.90;;;;;;5026122;28;20025;-71
2023/06/10 09:00:34;;;;;;;11.20;10.18;;;28.40;99.90;;;;;;5022797;28;20071;-70
2023/06/10 09:03:02;;;;;;;15.07;10.70;;;28.60;99.90;;;;;;5024034;28;20038;-71
2023/06/10 09:05:29;;;;;;;13.27;9.63;;;28.60;99.90;;;;;;5012753;28;20033;-71
2023/06/10 09:07:56;;;;;;;17.67;11.23;;;28.80;99.90;;;;;;5025004;28;20028;-71
2023/06/10 09:10:22;;;;;;;12.70;11.07;;;28.70;99.90;;;;;;5021642;28;20026;-70
2023/06/10 09:12:48;;;;;;;11.40;9.82;;;28.90;99.30;;;;;;5026425;28;20156;-70
2023/06/10 09:15:14;;;;;;;14.60;10.77;;;29.10;99.90;;;;;;5025894;28;20037;-71
2023/06/10 09:17:40;;;;;;;14.82;12.80;;;29.10;99.40;;;;;;5027342;28;20104;-71
2023/06/10 09:20:10;;;;;;;12.05;10.93;;;29.00;98.40;;;;;;5025933;28;20022;-70
2023/06/10 09:22:36;;;;;;;12.25;10.90;;;29.20;98.80;;;;;;5025429;28;20037;-71
2023/06/10 09:25:12;;;;;;;11.65;9.73;;;29.10;98.80;;;;;;5025310;28;20084;-71
2023/06/10 09:27:50;;;;;;;13.38;10.98;;;29.30;98.90;;;;;;5025397;28;20026;-71
2023/06/10 09:30:30;;;;;;;11.60;10.45;;;29.50;99.10;;;;;;5021481;28;20161;-70
2023/06/10 09:33:09;;;;;;;13.77;10.32;;;29.60;98.90;;;;;;5023403;28;20094;-71
2023/06/10 09:35:35;;;;;;;12.13;10.73;;;29.80;98.70;;;;;;5028039;28;20036;-70
2023/06/10 09:38:02;;;;;;;16.38;12.13;;;29.80;97.90;;;;;;5020978;28;20021;-71
2023/06/10 09:40:28;;;;;;;12.88;10.95;;;29.80;97.10;;;;;;5010832;28;20049;-71
2023/06/10 09:42:59;;;;;;;18.02;11.40;;;29.90;96.90;;;;;;5028242;28;20029;-71
2023/06/10 09:45:33;;;;;;;13.98;10.40;;;29.90;96.10;;;;;;5020058;28;20025;-71
2023/06/10 09:48:00;;;;;;;14.18;9.68;;;30.00;96.20;;;;;;5022742;28;20059;-69
2023/06/10 09:50:25;;;;;;;13.00;9.57;;;30.00;95.10;;;;;;5028835;28;20021;-70
2023/06/10 09:52:51;;;;;;;11.75;9.05;;;30.10;96.20;;;;;;5027914;28;20718;-69
2023/06/10 09:55:18;;;;;;;9.52;8.52;;;30.20;96.40;;;;;;5008945;28;20021;-69
2023/06/10 09:57:47;;;;;;;17.80;10.13;;;30.20;96.80;;;;;;5032201;28;20057;-70
2023/06/10 10:00:14;;;;;;;11.57;9.75;;;30.30;96.00;;;;;;5011257;28;20414;-70
2023/06/10 10:02:52;;;;;;;9.93;8.90;;;30.50;95.90;;;;;;5009168;28;20179;-69
2023/06/10 10:05:20;;;;;;;15.80;10.07;;;30.70;97.20;;;;;;5015412;28;20136;-70
2023/06/10 10:07:46;;;;;;;10.45;9.32;;;30.80;94.90;;;;;;5032629;28;20021;-70
2023/06/10 10:10:14;;;;;;;13.10;9.00;;;30.90;93.80;;;;;;5024367;28;20100;-69
2023/06/10 10:12:40;;;;;;;11.73;9.23;;;30.80;94.70;;;;;;5027166;28;20022;-70
2023/06/10 10:15:08;;;;;;;10.70;9.65;;;30.80;96.00;;;;;;5027606;28;20108;-69
2023/06/10 10:17:40;;;;;;;12.02;9.40;;;30.80;95.20;;;;;;5014016;28;20013;-69
2023/06/10 10:20:06;;;;;;;;;;;30.90;94.30;;;;;;5029234;28;20026;-69
2023/06/10 10:22:41;;;;;;;16.98;9.15;;;30.90;94.30;;;;;;5026736;28;19962;-69
2023/06/10 10:25:13;;;;;;;12.30;10.07;;;31.10;93.60;;;;;;5007514;28;20478;-70
2023/06/10 10:27:48;;;;;;;10.43;9.30;;;30.90;92.40;;;;;;5020415;28;20395;-70
2023/06/10 10:30:16;;;;;;;10.32;7.90;;;31.10;92.80;;;;;;5033342;28;20021;-69
2023/06/10 10:32:51;;;;;;;11.75;8.60;;;31.00;93.40;;;;;;5027446;28;20121;-70
2023/06/10 10:35:23;;;;;;;9.13;8.23;;;30.90;93.70;;;;;;5024843;28;20026;-69
2023/06/10 10:37:53;;;;;;;9.38;8.48;;;30.90;93.80;;;;;;5033879;28;20116;-70
2023/06/10 10:40:23;;;;;;;11.60;8.48;;;31.00;93.90;;;;;;5016086;28;20091;-70
2023/06/10 10:42:50;;;;;;;11.30;8.43;;;31.20;93.70;;;;;;5022864;28;20029;-71
2023/06/10 10:45:16;;;;;;;11.88;8.38;;;31.40;92.90;;;;;;5029013;28;20089;-70
2023/06/10 10:47:45;;;;;;;12.60;9.20;;;31.60;93.00;;;;;;5017117;28;20176;-71
2023/06/10 10:50:17;;;;;;;12.65;8.13;;;31.70;91.90;;;;;;5021494;28;20512;-70
2023/06/10 10:53:03;;;;;;;10.85;8.80;;;31.70;92.30;;;;;;5030857;28;20025;-70
2023/06/10 10:55:29;;;;;;;10.45;8.15;;;31.70;92.10;;;;;;5016901;28;20499;-70
2023/06/10 10:58:02;;;;;;;9.73;7.88;;;31.90;93.00;;;;;;5024428;28;20013;-70
2023/06/10 11:00:32;;;;;;;9.82;8.95;;;31.90;90.40;;;;;;5028281;28;20373;-69
2023/06/10 11:03:01;;;;;;;10.52;8.68;;;31.90;90.20;;;;;;5028671;28;20030;-70
2023/06/10 11:05:39;;;;;;;11.13;8.50;;;31.90;90.10;;;;;;5027426;28;20029;-70
2023/06/10 11:08:08;;;;;;;9.63;8.73;;;31.90;90.40;;;;;;5026056;28;20032;-70
2023/06/10 11:10:39;;;;;;;8.52;7.80;;;32.00;85.80;;;;;;5025025;28;20135;-71
2023/06/10 11:13:08;;;;;;;8.38;7.57;;;32.10;90.30;;;;;;5019943;28;20061;-70
2023/06/10 11:15:49;;;;;;;10.25;7.88;;;32.30;90.30;;;;;;5030475;28;20036;-70
2023/06/10 11:18:29;;;;;;;9.35;7.47;;;32.50;88.50;;;;;;5029327;28;20018;-70
2023/06/10 11:20:58;;;;;;;11.02;8.10;;;32.40;86.70;;;;;;5027150;28;20040;-70
2023/06/10 11:23:33;;;;;;;10.15;8.15;;;32.50;87.40;;;;;;5027602;28;20103;-69
2023/06/10 11:26:13;;;;;;;10.32;8.35;;;32.30;86.00;;;;;;5025149;28;20026;-70
2023/06/10 11:28:46;;;;;;;13.73;8.65;;;32.40;87.30;;;;;;5025647;28;20538;-69
2023/06/10 11:31:27;;;;;;;8.73;8.00;;;32.50;88.00;;;;;;5036821;28;20099;-70
2023/06/10 11:34:03;;;;;;;9.98;6.82;;;32.60;85.50;;;;;;5027859;28;20033;-69
2023/06/10 11:36:29;;;;;;;15.40;8.30;;;32.90;88.20;;;;;;5027172;28;20029;-69
2023/06/10 11:38:59;;;;;;;11.10;7.50;;;32.90;83.00;;;;;;5027321;28;20025;-69
2023/06/10 11:41:27;;;;;;;10.50;8.23;;;32.90;83.00;;;;;;5014611;28;20049;-69
2023/06/10 11:43:56;;;;;;;8.73;7.22;;;32.90;83.40;;;;;;5030141;28;20463;-69
2023/06/10 11:46:22;;;;;;;9.48;8.05;;;32.90;87.00;;;;;;5024566;28;20089;-69
2023/06/10 11:48:52;;;;;;;9.48;8.48;;;33.00;86.90;;;;;;5032413;28;20033;-70
2023/06/10 11:51:19;;;;;;;8.73;7.93;;;33.20;83.10;;;;;;5024204;28;20121;-70
2023/06/10 11:53:46;;;;;;;22.38;8.68;;;33.20;81.20;;;;;;5031650;28;20045;-69
2023/06/10 11:56:12;;;;;;;11.75;7.32;;;33.30;81.20;;;;;;5031816;28;20009;-70
2023/06/10 11:58:42;;;;;;;24.50;8.82;;;32.80;81.80;;;;;;5029640;28;20497;-70
2023/06/10 12:01:07;;;;;;;12.68;9.00;;;32.70;79.90;;;;;;5026618;28;20033;-69
2023/06/10 12:03:38;;;;;;;13.13;8.48;;;32.90;80.30;;;;;;5020825;28;20270;-69
2023/06/10 12:06:07;;;;;;;13.88;9.10;;;33.00;84.70;;;;;;5022992;28;20018;-69
2023/06/10 12:08:33;;;;;;;11.55;8.82;;;32.90;80.90;;;;;;5026201;28;20025;-68
2023/06/10 12:10:59;;;;;;;9.85;8.48;;;32.70;80.00;;;;;;5022363;28;20053;-69
2023/06/10 12:13:28;;;;;;;9.95;8.93;;;32.50;82.60;;;;;;5025499;28;20033;-69
2023/06/10 12:15:54;;;;;;;8.82;7.60;;;32.60;83.00;;;;;;5028940;28;20032;-69
2023/06/10 12:18:22;;;;;;;11.93;7.72;;;32.60;80.40;;;;;;5013862;28;20025;-69
2023/06/10 12:20:50;;;;;;;10.93;7.65;;;32.80;80.70;;;;;;5016634;28;20029;-69
2023/06/10 12:23:17;;;;;;;9.68;8.68;;;32.60;82.60;;;;;;5023469;28;20118;-70
2023/06/10 12:25:55;;;;;;;10.77;9.70;;;32.60;81.30;;;;;;5022636;28;20026;-72
2023/06/10 12:28:22;;;;;;;11.60;10.23;;;27.50;99.90;;;;;;5008287;28;20017;-71
2023/06/10 12:30:48;;;;;;;8.77;7.97;;;25.90;99.90;;;;;;5028610;28;20033;-71
2023/06/10 12:33:21;;;;;;;9.80;7.85;;;25.30;99.90;;;;;;5017891;28;20088;-71